createdAt,value
2018-05-04T00:01:02.129Z,82.80
2018-05-04T00:03:29.675Z,82.80
2018-05-04T00:05:57.590Z,82.70
2018-05-04T00:08:25.133Z,82.70
2018-05-04T00:10:53.037Z,82.60
2018-05-04T00:13:20.788Z,82.50
2018-05-04T00:15:48.308Z,82.50
2018-05-04T00:18:16.257Z,82.50
2018-05-04T00:20:43.774Z,82.50
2018-05-04T00:23:11.320Z,82.60
2018-05-04T00:25:38.846Z,82.60
2018-05-04T00:28:06.382Z,82.70
2018-05-04T00:30:34.001Z,82.70
2018-05-04T00:33:01.530Z,82.60
2018-05-04T00:35:29.113Z,82.50
2018-05-04T00:37:56.650Z,82.50
2018-05-04T00:40:24.166Z,82.50
2018-05-04T00:42:51.701Z,82.50
2018-05-04T00:45:19.214Z,82.40
2018-05-04T00:47:46.746Z,82.50
2018-05-04T00:50:14.846Z,82.50
2018-05-04T00:52:42.399Z,82.50
2018-05-04T00:55:09.897Z,82.30
2018-05-04T00:57:37.433Z,82.40
2018-05-04T01:00:05.098Z,82.30
2018-05-04T01:02:32.597Z,82.30
2018-05-04T01:05:00.585Z,82.00
2018-05-04T01:07:28.084Z,81.90
2018-05-04T01:09:55.710Z,81.90
2018-05-04T01:12:23.204Z,82.00
2018-05-04T01:14:50.838Z,81.80
2018-05-04T01:17:18.482Z,81.70
2018-05-04T01:19:46.014Z,81.60
2018-05-04T01:22:13.508Z,81.50
2018-05-04T01:24:41.033Z,81.50
2018-05-04T01:27:08.704Z,81.60
2018-05-04T01:29:36.768Z,81.60
2018-05-04T01:32:04.434Z,81.40
2018-05-04T01:34:31.976Z,81.50
2018-05-04T01:36:59.481Z,81.80
2018-05-04T01:39:27.189Z,81.70
2018-05-04T01:41:54.695Z,81.70
2018-05-04T01:44:22.234Z,81.80
2018-05-04T01:46:49.733Z,81.70
2018-05-04T01:49:17.281Z,81.70
2018-05-04T01:51:44.779Z,81.70
2018-05-04T01:54:12.337Z,81.90
2018-05-04T01:56:39.834Z,81.80
2018-05-04T01:59:07.363Z,81.50
2018-05-04T02:01:35.266Z,81.60
2018-05-04T02:04:02.805Z,81.50
2018-05-04T02:06:30.429Z,81.50
2018-05-04T02:08:57.966Z,81.40
2018-05-04T02:11:25.468Z,81.50
2018-05-04T02:13:53.192Z,81.50
2018-05-04T02:16:20.850Z,81.60
2018-05-04T02:18:48.510Z,81.60
2018-05-04T02:21:16.012Z,81.60
2018-05-04T02:23:43.548Z,81.60
2018-05-04T02:26:11.093Z,81.80
2018-05-04T02:28:38.724Z,81.70
2018-05-04T02:31:06.227Z,81.60
2018-05-04T02:33:33.773Z,81.60
2018-05-04T02:36:01.306Z,81.70
2018-05-04T02:38:28.812Z,81.70
2018-05-04T02:40:56.346Z,81.80
2018-05-04T02:43:23.857Z,81.90
2018-05-04T02:49:13.261Z,81.80
2018-05-04T02:51:40.760Z,81.80
2018-05-04T02:54:08.294Z,81.90
2018-05-04T02:56:35.804Z,81.80
2018-05-04T02:59:03.334Z,81.70
2018-05-04T03:01:31.233Z,81.70
2018-05-04T03:03:58.764Z,81.90
2018-05-04T03:06:26.266Z,81.80
2018-05-04T03:08:53.810Z,81.80
2018-05-04T03:11:21.720Z,81.80
2018-05-04T03:13:49.212Z,81.80
2018-05-04T03:16:16.739Z,81.70
2018-05-04T03:18:44.635Z,81.80
2018-05-04T03:21:12.166Z,81.70
2018-05-04T03:23:39.672Z,81.80
2018-05-04T03:26:07.209Z,81.80
2018-05-04T03:28:34.762Z,81.80
2018-05-04T03:31:02.302Z,81.70
2018-05-04T03:33:29.825Z,81.70
2018-05-04T03:35:57.377Z,81.90
2018-05-04T03:38:24.885Z,81.70
2018-05-04T03:40:52.426Z,81.90
2018-05-04T03:43:20.097Z,81.90
2018-05-04T03:45:48.178Z,81.90
2018-05-04T03:48:15.687Z,82.00
2018-05-04T03:50:43.220Z,82.00
2018-05-04T03:53:10.717Z,82.00
2018-05-04T03:55:38.265Z,82.30
2018-05-04T03:58:17.980Z,82.40
2018-05-04T04:00:57.385Z,82.50
2018-05-04T04:03:36.549Z,82.60
2018-05-04T04:06:04.490Z,82.70
2018-05-04T04:08:32.003Z,82.80
2018-05-04T04:10:59.541Z,82.70
2018-05-04T04:13:27.080Z,82.70
2018-05-04T04:15:54.621Z,82.60
2018-05-04T04:18:22.126Z,82.80
2018-05-04T04:20:50.333Z,82.90
2018-05-04T04:23:17.842Z,83.10
2018-05-04T04:25:45.378Z,83.10
2018-05-04T04:28:12.968Z,83.20
2018-05-04T04:30:40.526Z,83.30
2018-05-04T04:33:08.025Z,83.50
2018-05-04T04:35:35.759Z,83.70
2018-05-04T04:38:03.273Z,83.90
2018-05-04T04:40:31.255Z,83.90
2018-05-04T04:42:58.777Z,84.00
2018-05-04T04:45:26.326Z,84.20
2018-05-04T04:47:54.065Z,84.10
2018-05-04T04:50:21.597Z,84.30
2018-05-04T04:52:49.111Z,84.30
2018-05-04T04:55:16.810Z,84.40
2018-05-04T04:57:44.332Z,84.60
2018-05-04T05:00:11.833Z,84.50
2018-05-04T05:02:39.361Z,84.60
2018-05-04T05:05:06.878Z,84.40
2018-05-04T05:07:34.412Z,84.40
2018-05-04T05:10:01.927Z,84.10
2018-05-04T05:12:29.458Z,84.00
2018-05-04T05:14:56.964Z,84.10
2018-05-04T05:17:24.507Z,84.00
2018-05-04T05:19:52.010Z,83.90
2018-05-04T05:22:19.546Z,84.10
2018-05-04T05:24:47.057Z,84.30
2018-05-04T05:27:15.345Z,84.50
2018-05-04T05:29:43.026Z,84.30
2018-05-04T05:32:10.965Z,84.60
2018-05-04T05:34:38.461Z,84.70
2018-05-04T05:37:05.994Z,84.70
2018-05-04T05:39:33.493Z,85.10
2018-05-04T05:42:01.027Z,85.40
2018-05-04T05:44:28.938Z,85.50
2018-05-04T05:46:56.476Z,85.60
2018-05-04T05:49:23.985Z,85.80
2018-05-04T05:51:51.541Z,85.90
2018-05-04T05:54:19.050Z,86.00
2018-05-04T05:56:47.012Z,86.10
2018-05-04T05:59:14.515Z,86.10
2018-05-04T06:01:42.070Z,86.30
2018-05-04T06:04:09.661Z,86.00
2018-05-04T06:06:37.171Z,85.90
2018-05-04T06:09:05.495Z,86.00
2018-05-04T06:11:33.053Z,86.20
2018-05-04T06:14:00.573Z,86.20
2018-05-04T06:16:28.133Z,85.90
2018-05-04T06:18:55.649Z,85.50
2018-05-04T06:21:23.598Z,85.20
2018-05-04T06:23:51.116Z,84.80
2018-05-04T06:26:18.655Z,84.80
2018-05-04T06:28:46.186Z,84.90
2018-05-04T06:31:14.461Z,85.10
2018-05-04T06:33:42.242Z,85.10
2018-05-04T06:36:09.699Z,84.60
2018-05-04T06:38:37.231Z,84.50
2018-05-04T06:41:04.739Z,84.70
2018-05-04T06:43:32.277Z,84.50
2018-05-04T06:45:59.810Z,84.30
2018-05-04T06:48:27.341Z,84.30
2018-05-04T06:50:55.243Z,84.10
2018-05-04T06:53:22.814Z,84.00
2018-05-04T06:55:50.301Z,83.80
2018-05-04T06:58:17.859Z,83.80
2018-05-04T07:00:45.401Z,84.00
2018-05-04T07:03:12.933Z,83.90
2018-05-04T07:05:40.481Z,83.80
2018-05-04T07:08:08.144Z,83.80
2018-05-04T07:10:35.658Z,83.80
2018-05-04T07:13:03.585Z,83.70
2018-05-04T07:15:31.092Z,83.80
2018-05-04T07:17:58.627Z,83.30
2018-05-04T07:20:26.537Z,83.10
2018-05-04T07:22:54.093Z,82.90
2018-05-04T07:25:21.603Z,82.80
2018-05-04T07:27:49.553Z,82.90
2018-05-04T07:30:17.086Z,82.50
2018-05-04T07:32:45.139Z,82.30
2018-05-04T07:35:12.649Z,82.10
2018-05-04T07:37:40.594Z,82.10
2018-05-04T07:40:08.104Z,82.40
2018-05-04T07:42:35.630Z,82.00
2018-05-04T07:45:03.534Z,82.10
2018-05-04T07:47:31.193Z,81.80
2018-05-04T07:49:58.704Z,81.70
2018-05-04T07:52:26.415Z,81.60
2018-05-04T07:54:53.920Z,81.30
2018-05-04T07:57:21.851Z,81.80
2018-05-04T07:59:49.365Z,81.70
2018-05-04T08:02:16.945Z,81.70
2018-05-04T08:04:44.457Z,82.00
2018-05-04T08:07:11.982Z,81.80
2018-05-04T08:09:39.520Z,81.90
2018-05-04T08:12:07.044Z,82.10
2018-05-04T08:14:34.589Z,82.50
2018-05-04T08:17:02.492Z,82.60
2018-05-04T08:19:30.029Z,82.80
2018-05-04T08:21:57.543Z,82.70
2018-05-04T08:24:25.071Z,82.70
2018-05-04T08:26:52.619Z,82.70
2018-05-04T08:29:20.162Z,82.30
2018-05-04T08:31:48.069Z,82.30
2018-05-04T08:34:15.622Z,82.30
2018-05-04T08:36:43.145Z,82.50
2018-05-04T08:39:10.687Z,82.50
2018-05-04T08:41:38.198Z,82.80
2018-05-04T08:44:05.729Z,82.90
2018-05-04T08:46:33.671Z,82.90
2018-05-04T08:49:01.222Z,82.90
2018-05-04T08:51:28.721Z,82.80
2018-05-04T08:53:56.271Z,83.00
2018-05-04T08:56:23.796Z,83.00
2018-05-04T08:58:51.345Z,83.10
2018-05-04T09:01:18.874Z,83.20
2018-05-04T09:03:46.822Z,83.20
2018-05-04T09:06:14.324Z,83.10
2018-05-04T09:08:41.866Z,83.00
2018-05-04T09:11:09.373Z,83.00
2018-05-04T09:13:36.930Z,83.00
2018-05-04T09:16:04.523Z,83.00
2018-05-04T09:18:32.011Z,83.10
2018-05-04T09:20:59.544Z,83.20
2018-05-04T09:23:27.073Z,83.50
2018-05-04T09:25:54.590Z,83.40
2018-05-04T09:28:22.118Z,83.50
2018-05-04T09:30:49.713Z,84.10
2018-05-04T09:33:17.188Z,84.30
2018-05-04T09:35:44.710Z,84.50
2018-05-04T09:38:12.255Z,84.60
2018-05-04T09:40:39.764Z,84.60
2018-05-04T09:43:07.773Z,84.60
2018-05-04T09:45:35.305Z,84.60
2018-05-04T09:48:02.837Z,84.60
2018-05-04T09:50:30.390Z,84.60
2018-05-04T09:52:58.002Z,84.80
2018-05-04T09:55:25.535Z,84.70
2018-05-04T09:57:53.045Z,84.70
2018-05-04T10:00:20.591Z,84.40
2018-05-04T10:02:48.493Z,84.50
2018-05-04T10:05:16.439Z,84.70
2018-05-04T10:07:43.961Z,84.70
2018-05-04T10:10:11.509Z,84.60
2018-05-04T10:12:39.014Z,84.90
2018-05-04T10:15:06.546Z,85.30
2018-05-04T10:17:34.057Z,85.10
2018-05-04T10:20:01.598Z,85.20
2018-05-04T10:22:29.121Z,85.30
2018-05-04T10:24:56.665Z,85.30
2018-05-04T10:27:24.169Z,85.50
2018-05-04T10:29:51.725Z,85.50
2018-05-04T10:32:19.653Z,85.40
2018-05-04T10:34:47.593Z,85.30
2018-05-04T10:37:15.116Z,85.20
2018-05-04T10:39:42.657Z,84.90
2018-05-04T10:42:10.162Z,85.20
2018-05-04T10:44:37.689Z,85.40
2018-05-04T10:47:05.194Z,84.90
2018-05-04T10:49:32.725Z,84.90
2018-05-04T10:52:00.233Z,84.80
2018-05-04T10:54:28.173Z,84.30
2018-05-04T10:56:55.693Z,84.90
2018-05-04T10:59:23.229Z,85.20
2018-05-04T11:01:50.750Z,84.70
2018-05-04T11:04:18.309Z,84.60
2018-05-04T11:06:45.817Z,84.80
2018-05-04T11:09:13.359Z,84.80
2018-05-04T11:11:40.890Z,84.70
2018-05-04T11:14:08.822Z,84.70
2018-05-04T11:16:36.343Z,84.70
2018-05-04T11:19:03.990Z,84.50
2018-05-04T11:21:31.534Z,84.60
2018-05-04T11:23:59.809Z,84.50
2018-05-04T11:26:27.356Z,84.40
2018-05-04T11:28:54.863Z,84.60
2018-05-04T11:31:22.421Z,84.40
2018-05-04T11:33:49.958Z,83.40
2018-05-04T11:36:17.517Z,82.90
2018-05-04T11:38:45.070Z,82.30
2018-05-04T11:41:12.605Z,82.30
2018-05-04T11:43:40.122Z,82.60
2018-05-04T11:46:07.678Z,82.90
2018-05-04T11:48:35.191Z,83.00
2018-05-04T11:51:02.744Z,83.20
2018-05-04T11:53:30.270Z,83.40
2018-05-04T11:55:58.205Z,83.10
2018-05-04T11:58:25.729Z,82.80
2018-05-04T12:00:53.281Z,82.70
2018-05-04T12:03:20.816Z,82.70
2018-05-04T12:05:48.364Z,82.40
2018-05-04T12:08:16.278Z,81.40
2018-05-04T12:10:43.849Z,81.60
2018-05-04T12:13:11.361Z,81.30
2018-05-04T12:15:39.289Z,80.60
2018-05-04T12:18:06.789Z,80.40
2018-05-04T12:20:34.342Z,80.00
2018-05-04T12:23:01.865Z,80.00
2018-05-04T12:25:29.505Z,80.10
2018-05-04T12:27:57.019Z,80.30
2018-05-04T12:30:24.566Z,80.30
2018-05-04T12:32:52.077Z,80.50
2018-05-04T12:35:19.621Z,80.90
2018-05-04T12:37:47.121Z,80.90
2018-05-04T12:40:14.694Z,80.50
2018-05-04T12:42:42.662Z,80.90
2018-05-04T12:45:10.217Z,81.00
2018-05-04T12:47:37.720Z,81.50
2018-05-04T12:50:05.271Z,81.50
2018-05-04T12:52:32.796Z,81.80
2018-05-04T12:55:00.314Z,82.30
2018-05-04T12:57:28.246Z,82.00
2018-05-04T12:59:55.754Z,82.30
2018-05-04T13:02:23.286Z,82.00
2018-05-04T13:04:51.193Z,81.80
2018-05-04T13:07:18.743Z,81.70
2018-05-04T13:09:46.265Z,81.80
2018-05-04T13:12:14.245Z,81.80
2018-05-04T13:28:40.531Z,81.60
2018-05-04T13:31:08.075Z,81.80
2018-05-04T13:33:36.440Z,81.50
2018-05-04T13:36:03.966Z,81.60
2018-05-04T13:38:31.489Z,81.50
2018-05-04T13:40:59.020Z,81.20
2018-05-04T13:43:26.524Z,81.10
2018-05-04T13:45:54.066Z,81.10
2018-05-04T13:48:22.767Z,81.80
2018-05-04T13:50:52.155Z,81.40
2018-05-04T13:53:19.620Z,81.60
2018-05-04T13:55:47.175Z,81.00
2018-05-04T13:58:16.610Z,81.30
2018-05-04T14:00:45.277Z,81.00
2018-05-04T14:03:12.788Z,81.80
2018-05-04T14:05:40.298Z,81.70
2018-05-04T14:08:07.840Z,81.80
2018-05-04T14:10:35.353Z,81.60
2018-05-04T14:13:02.981Z,81.60
2018-05-04T14:15:32.412Z,81.40
2018-05-04T14:17:59.954Z,81.20
2018-05-04T14:20:27.506Z,80.90
2018-05-04T14:22:55.040Z,80.90
2018-05-04T14:25:23.574Z,81.10
2018-05-04T14:27:51.541Z,81.30
2018-05-04T14:30:20.133Z,81.30
2018-05-04T14:32:47.926Z,81.70
2018-05-04T14:35:16.697Z,81.30
2018-05-04T14:37:44.249Z,81.30
2018-05-04T14:40:11.765Z,81.20
2018-05-04T14:42:39.325Z,80.90
2018-05-04T14:45:06.838Z,80.90
2018-05-04T14:47:34.389Z,81.00
2018-05-04T14:50:02.767Z,81.30
2018-05-04T14:52:30.346Z,81.00
2018-05-04T14:54:58.569Z,80.60
2018-05-04T14:57:27.047Z,81.20
2018-05-04T14:59:54.957Z,81.70
2018-05-04T15:02:23.163Z,81.50
2018-05-04T15:04:51.074Z,81.90
2018-05-04T15:07:18.653Z,81.90
2018-05-04T15:09:46.833Z,82.10
2018-05-04T15:12:14.591Z,81.40
2018-05-04T15:14:42.097Z,81.10
2018-05-04T15:17:09.647Z,80.40
2018-05-04T15:19:37.862Z,81.10
2018-05-04T15:22:05.590Z,81.10
2018-05-04T15:24:33.123Z,81.00
2018-05-04T15:27:01.126Z,80.90
2018-05-04T15:29:29.451Z,80.90
2018-05-04T15:31:57.663Z,81.80
2018-05-04T15:34:25.187Z,82.60
2018-05-04T15:36:54.342Z,81.90
2018-05-04T15:39:21.853Z,81.90
2018-05-04T15:41:49.390Z,81.70
2018-05-04T15:44:17.350Z,81.50
2018-05-04T15:46:44.881Z,81.70
2018-05-04T15:49:18.667Z,82.10
2018-05-04T15:51:52.593Z,81.30
2018-05-04T15:54:20.173Z,81.70
2018-05-04T15:56:48.106Z,80.60
2018-05-04T15:59:15.649Z,80.60
2018-05-04T16:01:43.169Z,80.20
2018-05-04T16:04:11.106Z,81.00
2018-05-04T16:06:38.623Z,81.00
2018-05-04T16:09:06.163Z,80.80
2018-05-04T16:11:33.681Z,80.80
2018-05-04T16:14:01.245Z,81.00
2018-05-04T16:16:30.395Z,80.80
2018-05-04T16:18:57.955Z,80.80
2018-05-04T16:21:25.461Z,80.50
2018-05-04T16:23:53.418Z,80.40
2018-05-04T16:26:20.971Z,80.50
2018-05-04T16:28:48.930Z,80.50
2018-05-04T16:31:16.445Z,80.50
2018-05-04T16:33:44.009Z,80.50
2018-05-04T16:36:11.520Z,80.80
2018-05-04T16:38:39.121Z,80.30
2018-05-04T16:41:07.057Z,80.00
2018-05-04T16:43:34.603Z,80.00
2018-05-04T16:46:02.187Z,80.40
2018-05-04T16:48:35.475Z,80.30
2018-05-04T16:51:03.028Z,80.30
2018-05-04T16:53:30.554Z,81.00
2018-05-04T16:55:58.457Z,81.20
2018-05-04T16:58:25.986Z,81.20
2018-05-04T17:00:54.516Z,81.30
2018-05-04T17:03:22.091Z,81.40
2018-05-04T17:05:49.617Z,81.30
2018-05-04T17:08:17.170Z,81.70
2018-05-04T17:10:45.709Z,81.90
2018-05-04T17:13:13.273Z,82.00
2018-05-04T17:15:40.810Z,82.00
2018-05-04T17:18:08.377Z,82.30
2018-05-04T17:20:35.883Z,82.60
2018-05-04T17:23:04.297Z,82.30
2018-05-04T17:25:32.989Z,82.50
2018-05-04T17:28:01.289Z,82.50
2018-05-04T17:30:28.839Z,82.60
2018-05-04T17:32:56.365Z,82.80
2018-05-04T17:35:24.284Z,82.30
2018-05-04T17:37:51.788Z,82.30
2018-05-04T17:40:20.376Z,82.30
2018-05-04T17:42:47.901Z,82.30
2018-05-04T17:45:15.718Z,82.40
2018-05-04T17:47:43.235Z,82.30
2018-05-04T17:50:11.644Z,82.60
2018-05-04T17:52:39.146Z,82.60
2018-05-04T17:55:06.712Z,82.70
2018-05-04T17:57:34.636Z,82.90
2018-05-04T18:00:02.394Z,82.90
2018-05-04T18:02:29.911Z,83.00
2018-05-04T18:04:57.908Z,83.30
2018-05-04T18:07:25.442Z,83.30
2018-05-04T18:09:52.993Z,83.30
2018-05-04T18:12:20.538Z,83.30
2018-05-04T18:15:23.426Z,83.50
2018-05-04T18:17:51.345Z,83.70
2018-05-04T18:20:18.890Z,83.70
2018-05-04T18:22:48.733Z,83.80
2018-05-04T18:25:16.268Z,84.00
2018-05-04T18:27:43.786Z,84.00
2018-05-04T18:30:11.331Z,84.10
2018-05-04T18:32:38.845Z,84.10
2018-05-04T18:35:06.384Z,84.10
2018-05-04T18:37:33.925Z,84.30
2018-05-04T18:40:01.465Z,84.30
2018-05-04T18:42:28.980Z,84.30
2018-05-04T18:44:56.530Z,84.30
2018-05-04T18:47:24.045Z,84.30
2018-05-04T18:49:51.886Z,84.20
2018-05-04T18:52:19.880Z,84.30
2018-05-04T18:54:49.403Z,84.30
2018-05-04T18:57:17.792Z,84.40
2018-05-04T18:59:45.329Z,84.20
2018-05-04T19:02:12.843Z,84.30
2018-05-04T19:04:40.408Z,84.30
2018-05-04T19:07:07.917Z,84.20
2018-05-04T19:09:35.470Z,84.40
2018-05-04T19:12:02.982Z,84.50
2018-05-04T19:14:30.547Z,84.60
2018-05-04T19:17:01.704Z,84.40
2018-05-04T19:19:29.248Z,84.30
2018-05-04T19:21:58.039Z,84.60
2018-05-04T19:24:25.589Z,84.60
2018-05-04T19:26:53.109Z,84.60
2018-05-04T19:29:21.025Z,84.60
2018-05-04T19:31:49.529Z,84.60
2018-05-04T19:34:17.091Z,84.50
2018-05-04T19:36:44.653Z,84.40
2018-05-04T19:39:12.219Z,84.30
2018-05-04T19:41:40.377Z,84.40
2018-05-04T19:44:18.376Z,84.50
2018-05-04T19:46:45.910Z,84.50
2018-05-04T19:49:13.427Z,84.50
2018-05-04T19:51:41.885Z,84.40
2018-05-04T19:54:09.392Z,84.50
2018-05-04T19:56:37.237Z,84.40
2018-05-04T19:59:04.769Z,84.40
2018-05-04T20:01:32.334Z,84.40
2018-05-04T20:03:59.854Z,84.50
2018-05-04T20:06:27.790Z,84.70
2018-05-04T20:08:55.303Z,84.70
2018-05-04T20:11:22.825Z,84.80
2018-05-04T20:13:51.027Z,85.10
2018-05-04T20:16:18.625Z,85.20
2018-05-04T20:18:46.132Z,85.20
2018-05-04T20:21:13.673Z,85.30
2018-05-04T20:23:42.437Z,85.30
2018-05-04T20:36:42.822Z,86.00
2018-05-04T20:39:12.131Z,86.10
2018-05-04T20:41:40.060Z,86.20
2018-05-04T20:44:08.266Z,86.20
2018-05-04T20:46:36.213Z,86.10
2018-05-04T20:49:04.147Z,86.20
2018-05-04T20:51:31.676Z,86.20
2018-05-04T20:57:40.457Z,86.50
2018-05-04T21:00:09.404Z,86.60
2018-05-04T21:02:36.974Z,86.60
2018-05-04T21:05:04.614Z,86.60
2018-05-04T21:07:32.186Z,86.70
2018-05-04T21:10:00.660Z,86.70
2018-05-04T21:12:28.963Z,86.70
2018-05-04T21:14:56.481Z,86.70
2018-05-04T21:17:24.015Z,86.60
2018-05-04T21:19:52.697Z,86.60
2018-05-04T21:22:20.219Z,86.50
2018-05-04T21:24:47.759Z,86.50
2018-05-04T21:27:16.365Z,86.60
2018-05-04T21:29:44.433Z,86.70
2018-05-04T21:32:12.075Z,86.70
2018-05-04T21:34:39.584Z,86.80
2018-05-04T21:37:07.281Z,86.60
2018-05-04T21:39:34.797Z,86.60
2018-05-04T21:42:03.621Z,86.50
2018-05-04T21:44:31.486Z,86.50
2018-05-04T21:46:59.216Z,86.20
2018-05-04T21:49:27.799Z,86.60
2018-05-04T21:51:55.409Z,86.60
2018-05-04T21:54:23.261Z,86.70
2018-05-04T21:56:51.010Z,86.70
2018-05-04T21:59:18.712Z,86.50
2018-05-04T22:01:48.020Z,86.50
2018-05-04T22:04:15.529Z,86.50
2018-05-04T22:06:43.101Z,86.60
2018-05-04T22:09:10.661Z,86.70
2018-05-04T22:11:38.193Z,86.70
2018-05-04T22:14:05.853Z,86.80
2018-05-04T22:16:33.387Z,86.90
2018-05-04T22:19:00.906Z,86.90
2018-05-04T22:21:28.444Z,86.90
2018-05-04T22:23:55.968Z,87.00
2018-05-04T22:26:23.519Z,87.00
2018-05-04T22:28:51.191Z,87.20
2018-05-04T22:31:27.507Z,87.20
2018-05-04T22:33:55.453Z,87.10
2018-05-04T22:36:22.977Z,87.10
2018-05-04T22:38:50.612Z,87.10
2018-05-04T22:41:18.126Z,87.20
2018-05-04T22:43:45.676Z,87.20
2018-05-04T22:46:13.192Z,87.20
2018-05-04T22:48:40.743Z,87.40
2018-05-04T22:51:08.253Z,87.60
2018-05-04T22:53:35.813Z,87.70
2018-05-04T22:56:04.133Z,88.00
2018-05-04T22:58:31.664Z,88.10
2018-05-04T23:00:59.361Z,88.10
2018-05-04T23:03:26.893Z,88.30
2018-05-04T23:05:54.402Z,88.30
2018-05-04T23:08:21.956Z,88.30
2018-05-04T23:10:50.183Z,88.30
2018-05-04T23:13:17.739Z,88.20
2018-05-04T23:15:45.258Z,88.20
2018-05-04T23:18:12.973Z,88.30
2018-05-04T23:20:41.345Z,88.30
2018-05-04T23:23:09.261Z,88.20
2018-05-04T23:25:36.770Z,88.00
2018-05-04T23:28:04.423Z,88.10
2018-05-04T23:30:32.076Z,88.10
2018-05-04T23:32:59.605Z,88.30
2018-05-04T23:35:27.117Z,88.30
2018-05-04T23:37:54.656Z,88.30
2018-05-04T23:40:23.061Z,88.30
2018-05-04T23:42:50.589Z,88.40
2018-05-04T23:45:18.096Z,88.40
2018-05-04T23:47:46.096Z,88.40
2018-05-04T23:50:13.614Z,88.40
2018-05-04T23:52:41.549Z,88.30
2018-05-04T23:55:10.708Z,88.30
2018-05-04T23:57:38.254Z,88.20
